Thorncreek, Indiana
Current Conditions -  °F | °C
As of 3:42 AM on Friday 19 Dec 2014 (Local Time) from KFWA Reporting Station
Overcast Overcast  
Wind Chill: 19°   Ceiling: 2900
Heat Index: 27°   Visibility: 7mi
Dew Point: 22°   Wind: 8mph
Humidity: 81%   Direction: 270°W
Pressure: 30.24"   Gusts: NA
Location:  41.1479°N, 85.4772°W
Report Text: KFWA 190842Z 27007KT 7SM OVC029 M03/M06 A3024 RMK AO2 T10281056
Loading
Personal Weather Stations






























Interactive Weather Map New forecast layout! Learn more

10-Day Weather Forecast

Advertisements
Track Severe Weather on mobile